Time;durP1;ratioP1;P1;durP2;ratioP2;P2;SDS_P1;SDS_P2;PMS_P1;PMS_P2;Temp;Humidity;BMP_temperature;BMP_pressure;BME280_temperature;BME280_humidity;BME280_pressure;Samples;Min_cycle;Max_cycle;Signal;HPM_P1;HPM_P2
2022/09/05 00:00:43;;;;;;;1.85;1.22;;;;;;;12.88;48.99;101424.18;1671754;85;27478;-72
2022/09/05 00:03:50;;;;;;;2.27;1.10;;;;;;;12.81;49.23;101427.27;1668629;85;25412;-73
2022/09/05 00:06:40;;;;;;;1.15;0.80;;;;;;;12.77;49.10;101432.22;1683088;84;25600;-72
2022/09/05 00:09:47;;;;;;;1.05;0.95;;;;;;;12.70;49.44;101428.00;1665412;84;26344;-73
2022/09/05 00:12:34;;;;;;;2.20;1.10;;;;;;;12.65;49.67;101435.39;1668874;84;25746;-73
2022/09/05 00:15:59;;;;;;;1.22;1.10;;;;;;;12.59;49.83;101431.16;1681457;84;27480;-73
2022/09/05 00:19:06;;;;;;;1.30;1.10;;;;;;;12.51;50.19;101433.45;1689201;84;25498;-71
2022/09/05 00:22:17;;;;;;;1.82;0.98;;;;;;;12.42;50.17;101436.55;1723535;81;25804;-72
2022/09/05 00:25:22;;;;;;;2.85;1.30;;;;;;;12.35;50.63;101434.76;1751882;81;25699;-72
2022/09/05 00:28:25;;;;;;;2.55;1.27;;;;;;;12.25;50.70;101432.98;1754481;81;25751;-72
2022/09/05 00:31:15;;;;;;;1.27;1.17;;;;;;;12.20;50.55;101446.61;1754545;81;25529;-72
2022/09/05 00:34:25;;;;;;;1.25;1.05;;;;;;;12.09;50.86;101439.17;1754400;81;25559;-71
2022/09/05 00:37:10;;;;;;;3.83;1.17;;;;;;;12.05;51.34;101441.39;1754468;81;25533;-71
2022/09/05 00:40:15;;;;;;;3.90;1.30;;;;;;;11.95;51.49;101438.25;1754377;81;25441;-71
2022/09/05 00:43:18;;;;;;;3.98;1.15;;;;;;;11.87;51.36;101433.46;1754517;81;25593;-71
2022/09/05 00:46:26;;;;;;;1.60;0.98;;;;;;;11.81;51.42;101433.25;1754539;81;25532;-71
2022/09/05 00:49:24;;;;;;;1.07;0.90;;;;;;;11.75;51.81;101437.37;1754421;81;25425;-70
2022/09/05 00:52:19;;;;;;;2.70;1.00;;;;;;;11.70;51.65;101433.37;1748280;81;25664;-70
2022/09/05 00:55:31;;;;;;;5.67;2.08;;;;;;;11.65;51.90;101430.72;1753814;81;25526;-71
2022/09/05 00:59:00;;;;;;;4.65;1.12;;;;;;;11.59;52.11;101435.40;1751751;81;25442;-71
2022/09/05 01:02:41;;;;;;;1.30;0.80;;;;;;;11.53;52.34;101430.31;1679267;84;25603;-71
2022/09/05 01:05:40;;;;;;;4.20;0.95;;;;;;;11.46;52.36;101427.12;1684873;84;25565;-71
2022/09/05 01:09:03;;;;;;;1.98;1.00;;;;;;;11.38;52.29;101428.02;1685066;84;25603;-71
2022/09/05 01:12:13;;;;;;;1.62;1.17;;;;;;;11.35;52.51;101430.48;1683629;84;25547;-71
2022/09/05 01:15:17;;;;;;;2.77;1.10;;;;;;;11.27;52.60;101429.23;1716074;83;25619;-71
2022/09/05 01:18:27;;;;;;;2.47;1.12;;;;;;;11.20;52.72;101432.79;1716732;83;25669;-70
2022/09/05 01:21:20;;;;;;;1.82;1.50;;;;;;;11.14;53.45;101434.75;1716872;83;25730;-70
2022/09/05 01:24:46;;;;;;;2.33;1.20;;;;;;;11.05;53.79;101428.34;1719153;83;25612;-71
2022/09/05 01:27:42;;;;;;;1.10;0.98;;;;;;;10.98;53.38;101431.38;1716629;83;25728;-71
2022/09/05 01:30:38;;;;;;;1.50;1.17;;;;;;;10.94;53.89;101433.02;1716790;83;25657;-72
2022/09/05 01:33:44;;;;;;;1.20;0.93;;;;;;;10.91;53.75;101437.63;1778405;80;25578;-72
2022/09/05 01:36:54;;;;;;;1.87;1.17;;;;;;;10.88;53.89;101439.58;1785310;80;25375;-72
2022/09/05 01:40:10;;;;;;;1.80;1.00;;;;;;;10.84;54.54;101438.51;1780629;80;25372;-72
2022/09/05 01:43:12;;;;;;;5.00;1.10;;;;;;;10.80;54.40;101438.27;1772123;80;25736;-72
2022/09/05 01:46:21;;;;;;;1.30;1.10;;;;;;;10.75;54.67;101441.02;1789112;80;25510;-72
2022/09/05 01:49:15;;;;;;;5.67;1.02;;;;;;;10.69;54.99;101436.72;1787644;80;25591;-72
2022/09/05 01:52:46;;;;;;;3.92;1.27;;;;;;;10.64;54.93;101436.23;1788983;80;25630;-72
2022/09/05 01:55:47;;;;;;;2.30;1.20;;;;;;;10.59;55.33;101431.38;1728379;82;25597;-72
2022/09/05 01:58:49;;;;;;;1.47;1.37;;;;;;;10.55;55.57;101439.80;1727253;82;25681;-72
2022/09/05 02:02:12;;;;;;;4.83;1.40;;;;;;;10.48;55.44;101436.61;1735127;82;25420;-71
2022/09/05 02:05:05;;;;;;;2.08;1.25;;;;;;;10.41;55.66;101435.02;1686908;84;25541;-71
2022/09/05 02:08:35;;;;;;;4.40;1.50;;;;;;;10.35;55.67;101435.32;1689997;83;25683;-72
2022/09/05 02:11:48;;;;;;;2.77;1.10;;;;;;;10.32;55.90;101440.76;1694615;84;25475;-73
2022/09/05 02:15:06;;;;;;;1.52;1.10;;;;;;;10.24;55.72;101441.31;1694780;84;25771;-73
2022/09/05 02:17:55;;;;;;;4.95;1.52;;;;;;;10.19;56.15;101435.92;1694787;84;25457;-73
2022/09/05 02:21:02;;;;;;;1.98;1.30;;;;;;;10.14;56.17;101431.89;1694687;84;25653;-73
2022/09/05 02:24:01;;;;;;;1.67;1.27;;;;;;;10.08;56.31;101444.09;1694635;84;25760;-71
2022/09/05 02:26:51;;;;;;;3.17;1.37;;;;;;;10.01;56.46;101442.23;1609843;88;25627;-71
2022/09/05 02:29:44;;;;;;;2.00;1.40;;;;;;;9.96;56.29;101446.83;1604025;87;25238;-71
2022/09/05 02:32:56;;;;;;;2.27;1.12;;;;;;;9.90;56.81;101450.91;1633529;86;25543;-71
2022/09/05 02:36:01;;;;;;;4.47;1.25;;;;;;;9.85;56.63;101450.13;1703491;84;25611;-71
2022/09/05 02:39:22;;;;;;;1.62;1.40;;;;;;;9.81;57.12;101449.87;1703420;84;25631;-70
2022/09/05 02:42:18;;;;;;;1.90;1.30;;;;;;;9.79;57.12;101451.20;1689688;84;25481;-71
2022/09/05 02:45:28;;;;;;;2.12;1.37;;;;;;;9.73;57.24;101445.02;1703599;84;25511;-71
2022/09/05 02:48:41;;;;;;;0.98;0.93;;;;;;;9.68;57.13;101445.03;1667577;84;25568;-71
2022/09/05 02:51:50;;;;;;;2.58;1.10;;;;;;;9.63;57.35;101448.55;1703615;84;25597;-71
2022/09/05 02:54:45;;;;;;;3.87;1.40;;;;;;;9.60;57.64;101443.69;1703820;84;25726;-71
2022/09/05 02:57:43;;;;;;;2.72;1.10;;;;;;;9.56;57.24;101448.59;1703435;84;25758;-71
2022/09/05 03:00:33;;;;;;;2.83;1.22;;;;;;;9.49;57.58;101453.72;1703577;84;25724;-71
2022/09/05 03:03:29;;;;;;;1.80;1.17;;;;;;;9.46;57.60;101454.81;1718323;81;25734;-72
2022/09/05 03:06:37;;;;;;;1.70;1.20;;;;;;;9.42;57.83;101455.09;1744100;81;25563;-71
2022/09/05 03:09:58;;;;;;;1.85;1.35;;;;;;;9.37;57.63;101457.26;1732090;82;25603;-72
2022/09/05 03:13:38;;;;;;;3.12;1.47;;;;;;;9.31;57.96;101463.22;1732792;82;25573;-71
2022/09/05 03:16:44;;;;;;;1.72;1.30;;;;;;;9.24;57.88;101457.80;1700275;84;25628;-72
2022/09/05 03:19:55;;;;;;;3.98;1.17;;;;;;;9.16;57.65;101462.67;1720394;83;25394;-71
2022/09/05 03:23:31;;;;;;;2.12;1.15;;;;;;;9.11;58.24;101460.53;1728359;83;25658;-71
2022/09/05 03:26:57;;;;;;;2.67;1.70;;;;;;;9.04;58.21;101458.61;1726441;82;25804;-70
2022/09/05 03:30:07;;;;;;;4.45;1.90;;;;;;;8.95;58.59;101459.15;1721634;82;25706;-72
2022/09/05 03:33:12;;;;;;;;;;;;;;;8.88;59.13;101464.55;1732627;82;25656;-72
2022/09/05 03:36:20;;;;;;;10.00;1.67;;;;;;;8.78;58.92;101462.65;1685015;83;25434;-72
2022/09/05 03:39:22;;;;;;;2.58;1.40;;;;;;;8.71;59.30;101470.20;1728323;82;25615;-72
2022/09/05 03:42:42;;;;;;;2.83;1.40;;;;;;;8.63;59.10;101460.73;1694468;83;25625;-72
2022/09/05 03:45:32;;;;;;;2.15;1.35;;;;;;;8.60;59.06;101463.44;1731808;82;25553;-72
2022/09/05 03:48:34;;;;;;;2.02;1.50;;;;;;;8.57;59.53;101465.31;1702796;83;25509;-72
2022/09/05 03:51:54;;;;;;;4.47;1.82;;;;;;;8.51;60.10;101462.35;1725808;82;25623;-71
2022/09/05 03:55:03;;;;;;;4.67;1.62;;;;;;;8.48;59.93;101469.62;1766252;80;27491;-72
2022/09/05 03:58:19;;;;;;;1.77;1.35;;;;;;;8.41;60.37;101471.19;1674280;83;25791;-72
2022/09/05 04:01:44;;;;;;;1.50;1.40;;;;;;;8.36;60.59;101477.91;1626825;87;25786;-72
2022/09/05 04:04:33;;;;;;;3.55;1.70;;;;;;;8.29;60.31;101481.41;1636904;87;25601;-71
2022/09/05 04:07:26;;;;;;;2.52;1.60;;;;;;;8.23;60.53;101490.53;1645626;85;25580;-71
2022/09/05 04:10:31;;;;;;;4.58;1.70;;;;;;;8.17;60.78;101489.71;1623062;87;27519;-71
2022/09/05 04:13:39;;;;;;;3.75;1.75;;;;;;;8.14;60.59;101486.70;1682311;85;25932;-71
2022/09/05 04:16:29;;;;;;;4.90;1.55;;;;;;;8.13;61.14;101493.19;1684108;83;25524;-73
2022/09/05 04:19:25;;;;;;;2.42;1.47;;;;;;;8.12;61.32;101490.20;1684038;83;25539;-71
2022/09/05 04:22:37;;;;;;;3.05;1.45;;;;;;;8.12;61.19;101485.64;1683947;84;25791;-71
2022/09/05 04:25:58;;;;;;;2.92;1.20;;;;;;;8.13;61.44;101489.95;1684070;84;25629;-71
2022/09/05 04:29:17;;;;;;;2.08;1.30;;;;;;;8.13;61.33;101491.29;1684003;83;25822;-72
2022/09/05 04:32:39;;;;;;;3.17;1.42;;;;;;;8.12;61.39;101494.25;1683654;83;25699;-70
2022/09/05 04:35:59;;;;;;;2.95;1.40;;;;;;;8.11;61.43;101493.99;1693218;83;25609;-71
2022/09/05 04:38:45;;;;;;;4.78;2.02;;;;;;;8.11;61.33;101497.48;1691450;83;25452;-70
2022/09/05 04:41:33;;;;;;;1.42;1.12;;;;;;;8.09;61.54;101502.84;1779752;80;25555;-70
2022/09/05 04:44:26;;;;;;;2.52;1.32;;;;;;;8.10;62.06;101503.13;1789092;80;25669;-70
2022/09/05 04:47:28;;;;;;;3.50;1.40;;;;;;;8.11;61.80;101506.92;1784131;80;25409;-70
2022/09/05 04:50:17;;;;;;;3.00;1.50;;;;;;;8.13;61.81;101502.07;1789074;80;25688;-71
2022/09/05 04:53:27;;;;;;;2.58;1.40;;;;;;;8.17;62.15;101508.58;1781017;80;25599;-70
2022/09/05 04:56:20;;;;;;;2.12;1.57;;;;;;;8.21;62.18;101512.90;1789158;80;25625;-70
2022/09/05 04:59:15;;;;;;;3.27;1.80;;;;;;;8.26;62.34;101516.97;1778122;80;25448;-70
2022/09/05 05:02:05;;;;;;;3.90;1.67;;;;;;;8.33;62.48;101518.07;1781939;80;25639;-71
2022/09/05 05:04:49;;;;;;;4.20;2.00;;;;;;;8.58;63.06;101542.46;1788981;78;25664;-70
2022/09/05 05:08:01;;;;;;;4.05;2.20;;;;;;;8.58;63.06;101542.46;1770006;80;25372;-70
2022/09/05 05:11:02;;;;;;;7.15;1.98;;;;;;;8.55;63.07;101528.15;1758277;81;25575;-72
2022/09/05 05:13:58;;;;;;;6.15;1.87;;;;;;;8.65;63.12;101531.42;1720761;83;25688;-71
2022/09/05 05:16:51;;;;;;;3.02;2.15;;;;;;;8.75;63.23;101525.22;1756130;80;25540;-71
2022/09/05 05:19:46;;;;;;;1.82;1.60;;;;;;;8.87;63.55;101527.68;1768751;80;25640;-70
2022/09/05 05:22:30;;;;;;;5.87;1.50;;;;;;;8.97;63.31;101520.43;1760811;80;25451;-70
2022/09/05 05:25:15;;;;;;;4.85;1.87;;;;;;;9.10;63.33;101515.58;1765664;80;25632;-69
2022/09/05 05:28:08;;;;;;;6.12;2.05;;;;;;;9.22;63.20;101517.47;1761876;80;25606;-69
2022/09/05 05:30:56;;;;;;;4.90;1.67;;;;;;;9.36;63.44;101519.08;1764863;80;25560;-70
2022/09/05 05:33:44;;;;;;;7.37;2.30;;;;;;;9.51;63.39;101523.67;1767946;80;25503;-70
2022/09/05 05:36:36;;;;;;;15.15;2.00;;;;;;;9.67;63.43;101529.86;1766433;80;25749;-69
2022/09/05 05:39:27;;;;;;;19.50;4.00;;;;;;;9.83;63.55;101530.66;1711233;83;25710;-69
2022/09/05 05:42:23;;;;;;;8.53;2.00;;;;;;;10.00;63.48;101531.16;1721457;80;25660;-70
2022/09/05 05:45:22;;;;;;;8.55;1.60;;;;;;;10.20;63.33;101534.86;1749054;80;25784;-70
2022/09/05 05:48:21;;;;;;;6.10;2.08;;;;;;;10.40;63.18;101537.55;1753523;80;25387;-70
2022/09/05 05:51:27;;;;;;;7.95;1.80;;;;;;;10.63;63.04;101536.62;1787613;80;25334;-70
2022/09/05 05:54:31;;;;;;;1.27;1.07;;;;;;;10.89;63.01;101541.88;1787226;80;25598;-70
2022/09/05 05:57:36;;;;;;;4.72;1.70;;;;;;;11.15;62.39;101540.62;1781599;80;25741;-70
2022/09/05 06:00:38;;;;;;;3.67;1.22;;;;;;;11.44;62.52;101543.09;1786657;80;25345;-70
2022/09/05 06:03:43;;;;;;;5.20;1.52;;;;;;;11.71;61.92;101541.23;1778652;80;25613;-69
2022/09/05 06:06:48;;;;;;;6.53;1.67;;;;;;;12.01;61.58;101543.41;1773988;80;25608;-69
2022/09/05 06:10:01;;;;;;;3.90;1.50;;;;;;;12.33;61.27;101548.99;1782665;80;25538;-70
2022/09/05 06:13:27;;;;;;;3.65;1.30;;;;;;;12.68;60.88;101551.53;1779691;80;25405;-70
2022/09/05 06:16:56;;;;;;;2.20;1.47;;;;;;;13.02;60.21;101546.44;1779514;78;25796;-70
2022/09/05 06:20:15;;;;;;;6.22;3.98;;;;;;;13.44;59.63;101545.52;1694772;83;25841;-69
2022/09/05 06:23:44;;;;;;;41.13;20.08;;;;;;;13.85;58.70;101552.72;1703082;83;25470;-70
2022/09/05 06:27:00;;;;;;;3.30;1.52;;;;;;;14.22;57.97;101553.62;1694599;84;25667;-70
2022/09/05 06:30:18;;;;;;;5.72;1.75;;;;;;;14.64;57.28;101558.52;1702811;82;25949;-70
2022/09/05 06:33:34;;;;;;;4.25;2.47;;;;;;;15.07;56.63;101559.47;1693340;84;25639;-70
2022/09/05 06:36:36;;;;;;;15.20;1.40;;;;;;;15.50;55.94;101562.48;1699175;84;25682;-70
2022/09/05 06:39:55;;;;;;;7.60;1.70;;;;;;;15.94;55.07;101560.03;1640751;87;25813;-70
2022/09/05 06:43:02;;;;;;;2.80;1.27;;;;;;;16.34;53.55;101560.56;1644665;86;29684;-71
2022/09/05 06:46:26;;;;;;;3.45;1.20;;;;;;;16.76;52.77;101561.77;1709468;82;25682;-70
2022/09/05 06:49:28;;;;;;;1.80;1.20;;;;;;;17.21;52.23;101561.24;1693870;83;25715;-68
2022/09/05 06:52:50;;;;;;;3.70;1.20;;;;;;;17.71;51.20;101579.25;1693262;83;25803;-70
2022/09/05 06:56:04;;;;;;;1.45;0.90;;;;;;;18.12;50.14;101577.05;1701928;82;25580;-70
2022/09/05 06:59:34;;;;;;;3.25;1.00;;;;;;;18.59;48.55;101577.52;1709617;83;25732;-70
2022/09/05 07:02:24;;;;;;;1.45;1.07;;;;;;;18.96;48.38;101590.90;1664362;84;25484;-69
2022/09/05 07:05:23;;;;;;;1.25;0.75;;;;;;;19.46;47.12;101582.33;1702335;83;25642;-69
2022/09/05 07:08:19;;;;;;;4.08;1.20;;;;;;;19.84;46.08;101588.74;1700348;82;25716;-70
2022/09/05 07:11:15;;;;;;;3.08;1.10;;;;;;;20.23;45.52;101594.15;1671278;84;25722;-71
2022/09/05 07:14:14;;;;;;;1.55;1.07;;;;;;;20.62;44.72;101596.51;1712834;81;25620;-70
2022/09/05 07:17:25;;;;;;;2.15;1.02;;;;;;;20.98;43.72;101588.01;1713920;82;25695;-71
2022/09/05 07:20:28;;;;;;;4.67;1.17;;;;;;;21.39;42.84;101587.39;1734597;81;26485;-71
2022/09/05 07:23:59;;;;;;;2.70;1.10;;;;;;;21.76;42.14;101588.00;1701423;82;25414;-71
2022/09/05 07:26:47;;;;;;;2.40;0.80;;;;;;;22.09;41.36;101597.08;1699901;82;25652;-69
2022/09/05 07:29:39;;;;;;;2.22;1.00;;;;;;;22.44;40.22;101591.64;1723274;82;26399;-71
2022/09/05 07:34:39;;;;;;;1.67;0.70;;;;;;;23.16;39.15;101595.96;1870304;76;25527;-71
2022/09/05 07:37:40;;;;;;;4.60;0.90;;;;;;;23.35;38.40;101586.86;1829383;77;25355;-71
2022/09/05 07:40:27;;;;;;;1.15;0.75;;;;;;;23.69;37.88;101598.92;1828811;77;27475;-70
2022/09/05 07:43:26;;;;;;;1.35;1.00;;;;;;;24.10;37.26;101590.17;1809070;77;25711;-70
2022/09/05 07:46:27;;;;;;;1.47;1.10;;;;;;;24.32;35.97;101598.21;1824857;77;35396;-70
2022/09/05 07:49:16;;;;;;;2.58;1.30;;;;;;;24.53;35.51;101593.56;1829773;77;25592;-70
2022/09/05 07:52:10;;;;;;;;;;;;;;;24.87;34.73;101586.73;1832126;77;25440;-71
2022/09/05 07:55:00;;;;;;;2.62;1.40;;;;;;;25.05;33.50;101591.12;1836536;77;25671;-70
2022/09/05 07:57:47;;;;;;;2.37;1.50;;;;;;;25.27;33.44;101590.81;1796416;78;32090;-69
2022/09/05 08:00:34;;;;;;;3.05;1.30;;;;;;;25.45;33.01;101595.14;1751471;80;25327;-70
2022/09/05 08:03:23;;;;;;;3.92;2.15;;;;;;;25.72;32.67;101590.26;1777940;80;25604;-70
2022/09/05 08:06:16;;;;;;;2.25;1.50;;;;;;;26.11;31.96;101591.02;1775922;80;25683;-70
2022/09/05 08:09:14;;;;;;;3.00;1.50;;;;;;;26.45;31.67;101592.43;1735095;80;25694;-69
2022/09/05 08:12:13;;;;;;;1.45;0.78;;;;;;;26.76;31.11;101587.47;1796614;78;25633;-69
2022/09/05 08:15:21;;;;;;;;;;;;;;;26.73;30.26;101590.23;1775377;80;26457;-69
2022/09/05 08:18:27;;;;;;;1.55;0.60;;;;;;;26.82;29.77;101594.25;1760525;80;25609;-70
2022/09/05 08:21:20;;;;;;;3.15;1.00;;;;;;;27.13;29.53;101585.05;1756699;80;25808;-70
2022/09/05 08:24:19;;;;;;;0.55;0.53;;;;;;;27.41;29.12;101587.71;1771018;80;27487;-70
2022/09/05 08:27:25;;;;;;;1.95;0.82;;;;;;;27.65;28.86;101590.92;1770895;80;25631;-70
2022/09/05 08:30:11;;;;;;;1.70;0.80;;;;;;;27.97;28.65;101584.62;1768383;80;25666;-71
2022/09/05 08:33:01;;;;;;;1.80;0.60;;;;;;;28.23;27.86;101584.20;1764052;80;25511;-70
2022/09/05 08:36:00;;;;;;;0.70;0.70;;;;;;;28.44;27.72;101584.75;1773631;80;25592;-70
2022/09/05 08:38:46;;;;;;;1.05;0.90;;;;;;;28.73;27.04;101582.52;1771699;80;25685;-71
2022/09/05 08:41:45;;;;;;;2.65;0.55;;;;;;;28.97;26.37;101574.63;1765709;80;25687;-71
2022/09/05 08:45:01;;;;;;;4.15;0.70;;;;;;;29.09;25.88;101574.77;1769440;80;25396;-72
2022/09/05 08:48:24;;;;;;;1.95;0.70;;;;;;;29.30;25.43;101575.87;1772441;80;25633;-71
2022/09/05 08:51:30;;;;;;;2.02;0.50;;;;;;;29.45;24.93;101566.22;1701338;83;25516;-70
2022/09/05 08:55:00;;;;;;;0.98;0.60;;;;;;;29.77;24.34;101558.25;1752847;80;27539;-71
2022/09/05 08:58:19;;;;;;;3.37;0.70;;;;;;;30.04;24.76;101560.41;1750133;80;25470;-72
2022/09/05 09:01:15;;;;;;;;;;;;;;;30.39;24.19;101564.83;1770519;80;25730;-72
2022/09/05 09:04:27;;;;;;;0.53;0.47;;;;;;;30.65;23.37;101568.11;1752977;81;25772;-71
2022/09/05 09:07:42;;;;;;;1.67;0.50;;;;;;;30.83;23.19;101563.09;1752810;81;25740;-68
2022/09/05 09:10:58;;;;;;;1.07;0.60;;;;;;;30.87;22.67;101556.06;1753272;81;25760;-70
2022/09/05 09:14:16;;;;;;;2.12;0.40;;;;;;;30.99;22.51;101562.54;1753599;81;25635;-70
2022/09/05 09:17:44;;;;;;;0.90;0.30;;;;;;;30.94;22.28;101556.02;1655327;85;25734;-70
2022/09/05 09:20:40;;;;;;;0.72;0.42;;;;;;;30.97;21.99;101557.17;1652730;85;25825;-71
2022/09/05 09:23:46;;;;;;;1.00;0.30;;;;;;;31.27;21.62;101557.12;1692991;84;25717;-71
2022/09/05 09:26:41;;;;;;;0.65;0.50;;;;;;;31.45;21.60;101540.70;1657534;86;25778;-71
2022/09/05 09:29:28;;;;;;;1.15;0.50;;;;;;;31.81;21.57;101534.54;1657912;86;25898;-71
2022/09/05 09:32:21;;;;;;;1.55;0.68;;;;;;;31.97;20.71;101534.63;1655593;86;25712;-71
2022/09/05 09:35:17;;;;;;;0.68;0.35;;;;;;;31.97;20.71;101534.63;1634808;86;25791;-74
2022/09/05 09:38:16;;;;;;;1.27;0.40;;;;;;;31.84;20.74;101528.06;1646965;87;25866;-74
2022/09/05 09:41:27;;;;;;;0.62;0.50;;;;;;;32.13;20.56;101525.58;1657352;86;25728;-73
2022/09/05 09:44:51;;;;;;;2.50;0.70;;;;;;;32.39;20.59;101530.08;1660600;86;25776;-73
2022/09/05 09:48:00;;;;;;;1.15;0.50;;;;;;;32.82;20.22;101527.00;1660678;86;25693;-70
2022/09/05 09:51:07;;;;;;;0.53;0.50;;;;;;;32.95;20.02;101524.48;1655590;86;25671;-72
2022/09/05 09:54:15;;;;;;;0.80;0.72;;;;;;;32.98;19.98;101522.03;1730590;80;25480;-72
2022/09/05 09:57:20;;;;;;;1.47;0.40;;;;;;;33.06;19.91;101521.43;1753311;80;26599;-73
2022/09/05 10:00:20;;;;;;;1.35;0.20;;;;;;;33.12;19.73;101521.09;1757347;80;25854;-72
2022/09/05 10:03:39;;;;;;;0.62;0.62;;;;;;;33.03;18.93;101510.31;1752004;80;25587;-71
2022/09/05 10:06:48;;;;;;;0.90;0.55;;;;;;;32.75;18.73;101503.52;1757465;80;25691;-72
2022/09/05 10:10:23;;;;;;;1.85;0.40;;;;;;;32.83;19.46;101506.16;1766830;79;25428;-71
2022/09/05 10:13:36;;;;;;;1.75;0.60;;;;;;;33.06;19.47;101502.44;1767042;79;25716;-72
2022/09/05 10:16:30;;;;;;;0.33;0.30;;;;;;;33.36;19.06;101491.53;1757601;80;25645;-71
2022/09/05 10:19:49;;;;;;;0.55;0.33;;;;;;;33.62;18.78;101494.48;1789711;79;25581;-69
2022/09/05 10:23:00;;;;;;;2.52;0.40;;;;;;;33.81;18.77;101499.81;1759435;80;25377;-67
2022/09/05 10:26:02;;;;;;;0.88;0.20;;;;;;;33.77;18.97;101487.29;1753974;81;25382;-73
2022/09/05 10:29:15;;;;;;;0.55;0.30;;;;;;;33.57;19.76;101492.21;1767394;79;25675;-73
2022/09/05 10:32:08;;;;;;;2.75;0.57;;;;;;;32.80;19.33;101489.62;1715919;82;26002;-73
2022/09/05 10:35:16;;;;;;;0.40;0.30;;;;;;;31.64;19.88;101488.89;1711833;82;25717;-72
2022/09/05 10:38:15;;;;;;;0.30;0.30;;;;;;;30.96;20.31;101498.34;1711537;83;25840;-72
2022/09/05 10:41:09;;;;;;;1.07;0.70;;;;;;;30.93;20.67;101490.77;1701188;83;25821;-72
2022/09/05 10:44:01;;;;;;;1.45;0.50;;;;;;;30.61;21.39;101491.39;1704116;83;25752;-73
2022/09/05 10:46:54;;;;;;;1.90;0.53;;;;;;;30.54;21.44;101487.30;1636039;85;25527;-73
2022/09/05 10:49:46;;;;;;;0.40;0.37;;;;;;;30.73;22.64;101483.86;1651242;85;25829;-72
2022/09/05 10:52:38;;;;;;;2.92;1.75;;;;;;;30.94;21.97;101485.38;1651366;85;25500;-72
2022/09/05 10:55:53;;;;;;;0.85;0.60;;;;;;;30.96;21.67;101480.97;1654188;85;25751;-71
2022/09/05 10:59:00;;;;;;;0.65;0.47;;;;;;;31.11;21.82;101495.52;1654654;85;25710;-70
2022/09/05 11:02:00;;;;;;;1.17;1.07;;;;;;;30.97;21.68;101479.73;1661344;85;25853;-70
2022/09/05 11:04:53;;;;;;;1.65;0.80;;;;;;;31.01;20.96;101478.31;1654255;85;25484;-70
2022/09/05 11:08:10;;;;;;;2.20;0.65;;;;;;;30.89;20.78;101476.25;1649923;85;25858;-69
2022/09/05 11:11:03;;;;;;;0.42;0.40;;;;;;;30.83;21.49;101477.92;1768771;80;25680;-71
2022/09/05 11:13:54;;;;;;;0.50;0.40;;;;;;;30.79;20.64;101472.23;1750981;81;25774;-72
2022/09/05 11:16:49;;;;;;;0.60;0.53;;;;;;;30.79;21.09;101489.77;1759798;80;25718;-71
2022/09/05 11:19:48;;;;;;;0.53;0.50;;;;;;;30.53;20.60;101468.38;1767824;80;25592;-70
2022/09/05 11:22:39;;;;;;;1.02;0.72;;;;;;;30.28;21.58;101465.09;1768109;81;25738;-71
2022/09/05 11:25:26;;;;;;;3.87;0.90;;;;;;;30.33;21.68;101466.80;1767729;81;25374;-71
2022/09/05 11:28:19;;;;;;;3.00;0.60;;;;;;;30.46;21.68;101467.66;1744037;81;26332;-69
2022/09/05 11:31:10;;;;;;;3.50;0.90;;;;;;;30.79;21.21;101463.23;1756724;81;25630;-70
2022/09/05 11:34:21;;;;;;;1.47;0.70;;;;;;;30.94;21.22;101465.25;1767331;79;25647;-71
2022/09/05 11:37:11;;;;;;;0.60;0.60;;;;;;;31.00;21.21;101462.76;1770995;79;25638;-71
2022/09/05 11:40:14;;;;;;;2.55;0.80;;;;;;;31.09;21.03;101464.40;1787518;80;26532;-68
2022/09/05 11:43:40;;;;;;;0.57;0.57;;;;;;;31.27;21.40;101459.94;1799364;78;25666;-69
2022/09/05 11:46:45;;;;;;;1.95;0.50;;;;;;;31.13;20.98;101455.38;1771996;80;25733;-69
2022/09/05 11:49:52;;;;;;;0.60;0.50;;;;;;;31.24;20.81;101452.39;1768230;80;25623;-69
2022/09/05 11:53:10;;;;;;;1.17;0.45;;;;;;;31.43;20.29;101445.28;1759075;80;25534;-69
2022/09/05 11:56:26;;;;;;;1.02;0.75;;;;;;;31.51;20.03;101447.39;1773529;79;25369;-67
2022/09/05 11:59:51;;;;;;;4.25;0.62;;;;;;;31.46;19.91;101449.41;1668812;85;26429;-70
2022/09/05 12:03:10;;;;;;;1.72;0.62;;;;;;;31.46;19.89;101447.23;1669925;85;25969;-71
2022/09/05 12:06:32;;;;;;;3.37;2.10;;;;;;;31.13;19.42;101442.80;1674253;85;25466;-72
2022/09/05 12:09:43;;;;;;;0.78;0.75;;;;;;;30.50;19.78;101441.30;1673537;85;25751;-72
2022/09/05 12:12:55;;;;;;;1.27;0.50;;;;;;;29.68;20.12;101441.61;1674164;84;25745;-70
2022/09/05 12:15:44;;;;;;;1.67;0.85;;;;;;;29.06;21.42;101440.51;1707310;82;25733;-71
2022/09/05 12:18:42;;;;;;;1.77;1.30;;;;;;;29.03;21.17;101431.00;1667849;84;25711;-71
2022/09/05 12:21:44;;;;;;;2.95;0.65;;;;;;;28.82;21.49;101425.56;1675621;85;25644;-71
2022/09/05 12:24:53;;;;;;;2.90;0.75;;;;;;;28.38;21.18;101426.97;1728713;82;25693;-72
2022/09/05 12:27:41;;;;;;;0.72;0.57;;;;;;;27.71;21.35;101425.38;1679836;84;25727;-73
2022/09/05 12:30:29;;;;;;;3.40;0.60;;;;;;;27.37;23.20;101429.38;1655116;85;25802;-72
2022/09/05 12:33:25;;;;;;;2.35;0.60;;;;;;;27.71;23.01;101432.33;1678555;84;25823;-71
2022/09/05 12:36:34;;;;;;;2.33;0.45;;;;;;;28.06;22.40;101420.36;1729421;80;25770;-70
2022/09/05 12:39:25;;;;;;;4.15;0.68;;;;;;;28.34;22.17;101420.04;1721658;82;25723;-68
2022/09/05 12:42:28;;;;;;;0.62;0.42;;;;;;;28.73;22.40;101412.10;1733566;81;25528;-71
2022/09/05 12:45:43;;;;;;;4.83;0.95;;;;;;;29.03;22.15;101415.67;1720891;83;25796;-71
2022/09/05 12:48:45;;;;;;;3.00;0.60;;;;;;;29.32;21.83;101411.88;1725006;82;25639;-70
2022/09/05 12:51:36;;;;;;;2.95;0.40;;;;;;;29.45;21.49;101405.20;1730406;81;25800;-70
2022/09/05 12:54:32;;;;;;;2.12;0.40;;;;;;;29.46;21.37;101404.80;1717174;83;25762;-69
2022/09/05 12:57:26;;;;;;;2.45;0.50;;;;;;;29.77;21.62;101404.91;1730693;81;25755;-69
2022/09/05 13:00:15;;;;;;;1.67;0.70;;;;;;;29.92;21.30;101402.14;1735998;81;26095;-70
2022/09/05 13:03:03;;;;;;;2.35;0.60;;;;;;;30.11;21.43;101400.71;1728804;80;25687;-69
2022/09/05 13:06:15;;;;;;;3.55;0.95;;;;;;;30.23;21.13;101397.97;1787507;78;25901;-71
2022/09/05 13:09:15;;;;;;;1.70;0.68;;;;;;;30.42;20.90;101392.36;1763680;78;25705;-69
2022/09/05 13:12:36;;;;;;;1.17;0.50;;;;;;;30.68;21.10;101392.20;1795305;78;25732;-69
2022/09/05 13:15:34;;;;;;;2.25;0.50;;;;;;;30.73;20.53;101385.33;1794549;78;25681;-70
2022/09/05 13:18:24;;;;;;;2.17;0.78;;;;;;;30.36;20.49;101382.89;1783279;80;25752;-70
2022/09/05 13:21:24;;;;;;;6.00;0.57;;;;;;;30.24;20.59;101386.20;1788607;78;25759;-68
2022/09/05 13:24:16;;;;;;;2.10;0.70;;;;;;;30.02;20.83;101382.89;1776653;80;25624;-69
2022/09/05 13:27:16;;;;;;;2.20;0.80;;;;;;;30.16;21.03;101379.94;1791598;78;25512;-68
2022/09/05 13:30:07;;;;;;;2.90;0.80;;;;;;;30.14;20.50;101376.78;1796636;78;25674;-67
2022/09/05 13:33:11;;;;;;;4.53;0.88;;;;;;;29.88;21.06;101379.09;1794894;78;25709;-70
2022/09/05 13:36:04;;;;;;;1.35;1.02;;;;;;;29.92;21.03;101381.22;1789654;78;25458;-70
2022/09/05 13:39:09;;;;;;;4.70;0.80;;;;;;;29.96;21.13;101376.37;1765133;80;25635;-70
2022/09/05 13:42:02;;;;;;;1.87;0.60;;;;;;;30.07;21.23;101374.06;1773426;80;25663;-69
2022/09/05 13:44:51;;;;;;;2.42;0.75;;;;;;;30.12;20.75;101369.41;1800445;78;25661;-67
2022/09/05 13:48:36;;;;;;;2.10;0.40;;;;;;;30.09;20.69;101365.48;1759684;78;25655;-69
2022/09/05 13:52:09;;;;;;;3.27;1.12;;;;;;;30.02;20.20;101362.78;1678877;83;25448;-69
2022/09/05 13:55:08;;;;;;;1.22;0.60;;;;;;;29.65;20.80;101358.80;1677238;84;25736;-70
2022/09/05 13:58:10;;;;;;;11.80;0.93;;;;;;;29.46;20.38;101356.61;1675563;83;25686;-68
2022/09/05 14:01:27;;;;;;;2.25;0.53;;;;;;;29.30;20.58;101350.21;1675605;84;25716;-69
2022/09/05 14:04:48;;;;;;;1.90;0.53;;;;;;;29.20;20.42;101351.31;1674752;84;25800;-68
2022/09/05 14:07:57;;;;;;;2.55;0.80;;;;;;;28.96;20.88;101348.91;1679763;83;25711;-68
2022/09/05 14:11:16;;;;;;;3.35;1.15;;;;;;;28.84;21.28;101354.38;1679939;83;25659;-69
2022/09/05 14:14:24;;;;;;;2.67;0.68;;;;;;;28.84;21.33;101345.20;1673721;85;25666;-69
2022/09/05 14:17:21;;;;;;;;;;;;;;;28.72;21.54;101339.53;1644578;87;26114;-69
2022/09/05 14:23:16;;;;;;;4.87;0.60;;;;;;;28.46;21.85;101336.71;1722064;82;25646;-70
2022/09/05 14:26:04;;;;;;;5.92;0.50;;;;;;;28.44;21.82;101351.03;1720006;82;25585;-69